No particular awareness of the weather is required.    There are no Weather-warnings


Meteo18 Weather Cam more information Meteo18 Weather Cam


Thunder radar more information blitzortung!


Rain radar more information rain snow radar


Visit our other weather sites:

Template documentation
and downloads

And another site



Weather Underground History page Text

Daily Summary for September 24, 2017 Units:  English    Metric   Both
« Previous Day
Next Day »
Daily Weekly Monthly Yearly Custom
  High: Low: Average:
Temperature: TemperatureC °F 10.6 °F 17 °F
Dew Point: DewpointC °F 9.5 °F 12 °F
Humidity: Humidity % 47 % 74 %
Wind Speed: WindSpeedKMH mph 0.0 mph 0.8 mph
Wind Gust: WindSpeedGustKMH mph - -
Wind:- - SE
Pressure: PressurehPa in 1019.5 in -
Precipitation: 0.0 in    
Historical Graphs
 
 
Tabular Data for September 24, 2017
Time Temperature Dew Point Pressure Wind Wind Speed Wind Gust Humidity Rainfall Rate (Hourly)
TemperatureC °F DewpointC °F PressurehPa in Calm     Humidity % HourlyPrecipMM in
00:02 14.3 °F 11.5 °F 1021.2 in Calm   4.8 mph 83 % 0.0 in
00:12 14.3 °F 11.6 °F 1021.2 in NNW 3.2 mph 4.8 mph 84 % 0.0 in
00:17 14.3 °F 11.5 °F 1021.2 in Calm   4.8 mph 83 % 0.0 in
00:22 14.1 °F 11.4 °F 1021.2 in Calm   6.4 mph 84 % 0.0 in
00:32 13.9 °F 11.4 °F 1021.2 in Calm   4.8 mph 85 % 0.0 in
00:37 13.9 °F 11.4 °F 1021.2 in Calm   4.8 mph 85 % 0.0 in
00:42 13.9 °F 11.4 °F 1021.2 in Calm   4.8 mph 85 % 0.0 in
00:47 13.7 °F 11.2 °F 1020.9 in Calm   3.2 mph 85 % 0.0 in
00:52 13.5 °F 11.0 °F 1020.9 in Calm   3.2 mph 85 % 0.0 in
00:57 13.4 °F 11.1 °F 1020.9 in Calm   1.6 mph 86 % 0.0 in
01:02 13.3 °F 11.0 °F 1020.9 in Calm   1.6 mph 86 % 0.0 in
01:07 13.3 °F 11.0 °F 1020.9 in Calm   1.6 mph 86 % 0.0 in
01:12 13.2 °F 10.9 °F 1020.9 in Calm   1.6 mph 86 % 0.0 in
01:17 13.1 °F 11.0 °F 1020.9 in Calm   1.6 mph 87 % 0.0 in
01:22 13.1 °F 11.0 °F 1020.9 in Calm   1.6 mph 87 % 0.0 in
01:27 13.1 °F 11.0 °F 1020.9 in Calm   1.6 mph 87 % 0.0 in
01:32 13.1 °F 11.2 °F 1020.9 in Calm   1.6 mph 88 % 0.0 in
01:37 13.0 °F 11.1 °F 1020.5 in NNW 1.6 mph 1.6 mph 88 % 0.0 in
01:42 13.0 °F 11.1 °F 1020.5 in Calm   1.6 mph 88 % 0.0 in
01:52 13.1 °F 11.2 °F 1020.9 in Calm   1.6 mph 88 % 0.0 in
01:57 13.1 °F 11.0 °F 1020.9 in Calm   1.6 mph 87 % 0.0 in
02:02 12.9 °F 11.0 °F 1020.9 in Calm   1.6 mph 88 % 0.0 in
02:07 12.8 °F 10.7 °F 1020.9 in Calm   1.6 mph 87 % 0.0 in
02:12 12.5 °F 10.7 °F 1020.9 in Calm   1.6 mph 89 % 0.0 in
02:17 12.6 °F 10.8 °F 1020.9 in NNW 1.6 mph 1.6 mph 89 % 0.0 in
02:22 12.8 °F 11.0 °F 1020.9 in Calm   1.6 mph 89 % 0.0 in
02:32 13.0 °F 11.1 °F 1020.9 in North 1.6 mph 3.2 mph 88 % 0.0 in
02:37 12.9 °F 10.8 °F 1021.2 in Calm   3.2 mph 87 % 0.0 in
02:42 12.9 °F 10.8 °F 1021.2 in Calm   3.2 mph 87 % 0.0 in
02:52 12.6 °F 10.5 °F 1020.9 in Calm   3.2 mph 87 % 0.0 in
02:57 12.6 °F 10.7 °F 1021.2 in Calm   1.6 mph 88 % 0.0 in
03:02 12.5 °F 10.7 °F 1020.9 in Calm   1.6 mph 89 % 0.0 in
03:07 12.5 °F 10.7 °F 1020.9 in NNW 1.6 mph 3.2 mph 89 % 0.0 in
03:12 12.6 °F 10.8 °F 1020.9 in Calm   3.2 mph 89 % 0.0 in
03:17 12.7 °F 10.9 °F 1020.9 in Calm   3.2 mph 89 % 0.0 in
03:22 12.6 °F 10.7 °F 1020.9 in NNW 1.6 mph 3.2 mph 88 % 0.0 in
03:27 12.6 °F 10.8 °F 1020.9 in Calm   4.8 mph 89 % 0.0 in
03:32 12.5 °F 10.7 °F 1020.9 in Calm   4.8 mph 89 % 0.0 in
03:37 12.4 °F 10.6 °F 1020.9 in NNW 1.6 mph 4.8 mph 89 % 0.0 in
03:42 12.3 °F 10.5 °F 1020.5 in North 1.6 mph 4.8 mph 89 % 0.0 in
03:47 12.2 °F 10.4 °F 1020.5 in Calm   3.2 mph 89 % 0.0 in
03:52 12.1 °F 10.5 °F 1020.5 in North 1.6 mph 3.2 mph 90 % 0.0 in
03:57 12.1 °F 10.5 °F 1020.5 in NNW 1.6 mph 3.2 mph 90 % 0.0 in
04:02 12.1 °F 10.5 °F 1020.5 in North 1.6 mph 3.2 mph 90 % 0.0 in
04:12 11.9 °F 10.3 °F 1020.5 in Calm   3.2 mph 90 % 0.0 in
04:17 11.9 °F 10.3 °F 1020.5 in Calm   3.2 mph 90 % 0.0 in
04:22 11.9 °F 10.5 °F 1020.5 in Calm   3.2 mph 91 % 0.0 in
04:32 11.9 °F 10.5 °F 1020.5 in NNW 1.6 mph   91 % 0.0 in
04:37 11.8 °F 10.4 °F 1020.5 in Calm   3.2 mph 91 % 0.0 in
04:42 11.8 °F 10.2 °F 1020.5 in Calm   3.2 mph 90 % 0.0 in
04:52 11.7 °F 10.1 °F 1020.5 in Calm   3.2 mph 90 % 0.0 in
05:02 11.7 °F 10.3 °F 1020.2 in North 1.6 mph 3.2 mph 91 % 0.0 in
05:07 11.7 °F 10.3 °F 1020.2 in Calm   1.6 mph 91 % 0.0 in
05:22 11.3 °F 9.9 °F 1020.2 in North 1.6 mph 1.6 mph 91 % 0.0 in
05:32 11.3 °F 9.9 °F 1020.2 in North 1.6 mph 1.6 mph 91 % 0.0 in
05:37 11.2 °F 9.9 °F 1020.2 in Calm   1.6 mph 92 % 0.0 in
05:42 11.2 °F 9.9 °F 1020.2 in Calm   1.6 mph 92 % 0.0 in
05:52 11.1 °F 9.8 °F 1020.2 in Calm   1.6 mph 92 % 0.0 in
05:57 11.0 °F 9.8 °F 1020.2 in Calm     92 % 0.0 in
06:02 10.9 °F 9.7 °F 1020.2 in Calm     92 % 0.0 in
06:12 10.9 °F 9.8 °F 1020.5 in Calm     93 % 0.0 in
06:17 10.9 °F 9.8 °F 1020.5 in Calm     93 % 0.0 in
06:22 11.1 °F 10.0 °F 1020.5 in Calm     93 % 0.0 in
06:27 11.0 °F 9.9 °F 1020.5 in Calm     93 % 0.0 in
06:32 11.0 °F 10.1 °F 1020.5 in Calm     94 % 0.0 in
06:42 10.9 °F 9.8 °F 1020.5 in Calm     93 % 0.0 in
06:47 10.9 °F 9.8 °F 1020.5 in Calm     93 % 0.0 in
06:52 10.8 °F 9.7 °F 1020.5 in Calm     93 % 0.0 in
06:57 10.7 °F 9.6 °F 1020.5 in Calm     93 % 0.0 in
07:02 10.8 °F 9.9 °F 1020.5 in Calm     94 % 0.0 in
07:12 10.7 °F 9.6 °F 1020.5 in Calm     93 % 0.0 in
07:17 10.7 °F 9.6 °F 1020.5 in Calm     93 % 0.0 in
07:22 10.7 °F 9.6 °F 1020.5 in Calm     93 % 0.0 in
07:32 10.7 °F 9.6 °F 1020.5 in Calm     93 % 0.0 in
07:42 10.6 °F 9.5 °F 1020.5 in Calm     93 % 0.0 in
07:47 10.6 °F 9.7 °F 1020.5 in Calm     94 % 0.0 in
07:57 10.6 °F 9.7 °F 1020.5 in Calm     94 % 0.0 in
08:02 10.7 °F 9.8 °F 1020.5 in Calm     94 % 0.0 in
08:07 10.8 °F 9.9 °F 1020.9 in Calm     94 % 0.0 in
08:12 10.8 °F 9.9 °F 1020.9 in Calm     94 % 0.0 in
08:17 10.8 °F 9.9 °F 1020.5 in Calm     94 % 0.0 in
08:22 10.9 °F 10.0 °F 1020.5 in Calm     94 % 0.0 in
08:32 10.9 °F 9.8 °F 1020.9 in Calm     93 % 0.0 in
08:42 10.9 °F 10.0 °F 1020.9 in Calm     94 % 0.0 in
08:52 10.8 °F 9.9 °F 1020.9 in Calm     94 % 0.0 in
09:02 11.0 °F 10.1 °F 1020.9 in Calm     94 % 0.0 in
09:07 11.1 °F 10.2 °F 1020.9 in NNE 3.2 mph   94 % 0.0 in
09:12 11.4 °F 10.5 °F 1020.9 in NNE 1.6 mph   94 % 0.0 in
09:17 11.8 °F 10.9 °F 1020.9 in Calm   4.8 mph 94 % 0.0 in
09:22 12.4 °F 11.5 °F 1020.9 in North 1.6 mph 4.8 mph 94 % 0.0 in
09:32 13.2 °F 11.8 °F 1021.2 in Calm   3.2 mph 91 % 0.0 in
09:42 13.9 °F 11.9 °F 1021.2 in NE 1.6 mph 3.2 mph 88 % 0.0 in
09:47 13.9 °F 11.8 °F 1021.2 in Calm   3.2 mph 87 % 0.0 in
09:52 14.2 °F 12.1 °F 1021.2 in Calm   3.2 mph 87 % 0.0 in
10:02 14.9 °F 12.0 °F 1021.2 in Calm   3.2 mph 83 % 0.0 in
10:07 15.2 °F 12.0 °F 1021.6 in Calm   1.6 mph 81 % 0.0 in
10:17 16.1 °F 12.5 °F 1021.2 in Calm   3.2 mph 79 % 0.0 in
10:22 16.4 °F 12.4 °F 1021.2 in Calm   3.2 mph 77 % 0.0 in
10:32 16.7 °F 12.4 °F 1021.6 in Calm   3.2 mph 76 % 0.0 in
10:37 16.9 °F 12.6 °F 1021.6 in Calm   6.4 mph 76 % 0.0 in
10:42 17.1 °F 12.8 °F 1021.6 in Calm   6.4 mph 76 % 0.0 in
10:47 17.4 °F 12.9 °F 1021.2 in Calm   6.4 mph 75 % 0.0 in
10:52 17.4 °F 12.7 °F 1021.6 in Calm   6.4 mph 74 % 0.0 in
11:02 17.7 °F 13.0 °F 1021.2 in Calm   3.2 mph 74 % 0.0 in
11:12 18.2 °F 13.1 °F 1021.6 in Calm   3.2 mph 72 % 0.0 in
11:17 18.3 °F 13.4 °F 1021.6 in Calm   4.8 mph 73 % 0.0 in
11:22 18.5 °F 13.6 °F 1021.6 in SSE 1.6 mph 4.8 mph 73 % 0.0 in
11:32 18.8 °F 13.9 °F 1021.6 in SE 1.6 mph 4.8 mph 73 % 0.0 in
11:42 19.1 °F 13.7 °F 1021.2 in Calm   4.8 mph 71 % 0.0 in
11:52 19.0 °F 13.8 °F 1021.2 in Calm   4.8 mph 72 % 0.0 in
12:02 19.6 °F 13.8 °F 1020.9 in East 1.6 mph 6.4 mph 69 % 0.0 in
12:12 20.1 °F 14.2 °F 1020.9 in Calm   6.4 mph 69 % 0.0 in
12:17 20.2 °F 13.6 °F 1020.9 in Calm   6.4 mph 66 % 0.0 in
12:22 20.3 °F 13.7 °F 1020.9 in ENE 4.8 mph 6.4 mph 66 % 0.0 in
12:27 20.2 °F 13.4 °F 1020.9 in Calm   8.0 mph 65 % 0.0 in
12:32 20.8 °F 14.4 °F 1020.9 in East 1.6 mph 8.0 mph 67 % 0.0 in
12:42 20.6 °F 13.6 °F 1020.9 in East 4.8 mph 8.0 mph 64 % 0.0 in
12:47 20.6 °F 13.8 °F 1020.9 in Calm   6.4 mph 65 % 0.0 in
12:52 20.9 °F 13.8 °F 1020.9 in ENE 8.0 mph 8.0 mph 64 % 0.0 in
13:02 21.1 °F 13.8 °F 1020.9 in SW 1.6 mph 8.0 mph 63 % 0.0 in
13:12 21.2 °F 13.6 °F 1020.9 in ENE 6.4 mph 8.0 mph 62 % 0.0 in
13:17 21.3 °F 14.0 °F 1020.9 in East 4.8 mph 8.0 mph 63 % 0.0 in
13:22 21.2 °F 13.9 °F 1020.9 in NE 8.0 mph 8.0 mph 63 % 0.0 in
13:32 21.8 °F 13.7 °F 1020.9 in Calm   8.0 mph 60 % 0.0 in
13:37 22.0 °F 13.9 °F 1020.9 in Calm   8.0 mph 60 % 0.0 in
13:42 21.9 °F 14.0 °F 1020.9 in Calm   8.0 mph 61 % 0.0 in
13:52 22.2 °F 13.5 °F 1020.5 in Calm   8.0 mph 58 % 0.0 in
13:57 22.4 °F 13.7 °F 1020.5 in SSW 4.8 mph 8.0 mph 58 % 0.0 in
14:02 22.7 °F 13.2 °F 1020.5 in SE 3.2 mph 8.0 mph 55 % 0.0 in
14:12 22.8 °F 11.8 °F 1020.5 in East 3.2 mph 8.0 mph 50 % 0.0 in
14:17 22.7 °F 12.0 °F 1020.5 in Calm   8.0 mph 51 % 0.0 in
14:22 23.2 °F 13.4 °F 1020.5 in SE 1.6 mph 6.4 mph 54 % 0.0 in
14:32 23.6 °F 13.2 °F 1020.5 in ENE 8.0 mph 8.0 mph 52 % 0.0 in
14:37 23.4 °F 13.0 °F 1020.2 in Calm   6.4 mph 52 % 0.0 in
14:42 23.7 °F 13.0 °F 1020.2 in Calm   8.0 mph 51 % 0.0 in
14:47 23.7 °F 13.0 °F 1020.2 in Calm   8.0 mph 51 % 0.0 in
14:57 23.5 °F 12.8 °F 1020.2 in WNW 8.0 mph 9.7 mph 51 % 0.0 in
15:02 23.3 °F 13.2 °F 1020.2 in Calm   9.7 mph 53 % 0.0 in
15:12 23.3 °F 12.6 °F 1020.2 in East 9.7 mph 9.7 mph 51 % 0.0 in
15:17 23.4 °F 13.3 °F 1020.2 in Calm   9.7 mph 53 % 0.0 in
15:22 23.7 °F 13.6 °F 1020.2 in SE 3.2 mph 9.7 mph 53 % 0.0 in
15:27 23.8 °F 12.8 °F 1020.2 in ENE 4.8 mph 9.7 mph 50 % 0.0 in
15:32 23.5 °F 12.5 °F 1020.2 in Calm   9.7 mph 50 % 0.0 in
15:42 23.9 °F 13.1 °F 1019.9 in Calm   8.0 mph 51 % 0.0 in
15:52 23.7 °F 12.7 °F 1019.9 in SW 1.6 mph 6.4 mph 50 % 0.0 in
16:02 23.9 °F 12.5 °F 1019.9 in WNW 1.6 mph 11.3 mph 49 % 0.0 in
16:12 23.8 °F 12.4 °F 1019.9 in Calm   4.8 mph 49 % 0.0 in
16:17 23.8 °F 12.4 °F 1019.9 in West 1.6 mph 4.8 mph 49 % 0.0 in
16:22 23.8 °F 12.8 °F 1019.9 in Calm   4.8 mph 50 % 0.0 in
16:32 24.1 °F 12.7 °F 1019.5 in Calm   6.4 mph 49 % 0.0 in
16:42 24.4 °F 13.0 °F 1019.5 in East 1.6 mph 3.2 mph 49 % 0.0 in
16:52 24.5 °F 13.1 °F 1019.9 in ENE 3.2 mph 4.8 mph 49 % 0.0 in
16:57 24.7 °F 13.0 °F 1019.9 in SW 1.6 mph 6.4 mph 48 % 0.0 in
17:02 24.6 °F 12.5 °F 1019.9 in SW 6.4 mph 6.4 mph 47 % 0.0 in
17:07 24.3 °F 12.6 °F 1019.5 in Calm   8.0 mph 48 % 0.0 in
17:12 24.6 °F 13.2 °F 1019.5 in Calm   8.0 mph 49 % 0.0 in
17:17 24.3 °F 12.9 °F 1019.5 in ENE 6.4 mph 8.0 mph 49 % 0.0 in
17:22 24.0 °F 12.6 °F 1019.5 in Calm   8.0 mph 49 % 0.0 in
17:27 24.1 °F 13.0 °F 1019.5 in NE 3.2 mph 8.0 mph 50 % 0.0 in
17:32 24.1 °F 13.0 °F 1019.5 in Calm   8.0 mph 50 % 0.0 in
17:37 24.1 °F 12.7 °F 1019.5 in Calm   6.4 mph 49 % 0.0 in
17:42 24.1 °F 12.7 °F 1019.5 in Calm   6.4 mph 49 % 0.0 in
17:47 24.1 °F 12.7 °F 1019.5 in East 1.6 mph 6.4 mph 49 % 0.0 in
17:52 23.8 °F 12.8 °F 1019.5 in Calm   6.4 mph 50 % 0.0 in
18:02 23.8 °F 12.8 °F 1019.5 in Calm   1.6 mph 50 % 0.0 in
18:12 23.8 °F 13.1 °F 1019.5 in Calm   1.6 mph 51 % 0.0 in
18:17 23.6 °F 12.9 °F 1019.5 in Calm     51 % 0.0 in
18:22 23.4 °F 12.4 °F 1019.5 in East 1.6 mph 1.6 mph 50 % 0.0 in
18:27 23.2 °F 12.8 °F 1019.9 in Calm   1.6 mph 52 % 0.0 in
18:32 23.1 °F 13.0 °F 1019.9 in Calm   4.8 mph 53 % 0.0 in
18:37 22.9 °F 12.8 °F 1019.9 in Calm   4.8 mph 53 % 0.0 in
18:42 22.8 °F 13.0 °F 1019.5 in East 1.6 mph 9.7 mph 54 % 0.0 in
18:52 22.5 °F 12.7 °F 1019.5 in ENE 3.2 mph 6.4 mph 54 % 0.0 in
18:57 22.3 °F 12.5 °F 1019.5 in East 1.6 mph 6.4 mph 54 % 0.0 in
19:02 22.2 °F 12.7 °F 1019.5 in East 1.6 mph 6.4 mph 55 % 0.0 in
19:07 22.1 °F 12.6 °F 1019.5 in ENE 1.6 mph 4.8 mph 55 % 0.0 in
19:12 22.1 °F 12.9 °F 1019.5 in Calm   4.8 mph 56 % 0.0 in
19:17 21.9 °F 13.0 °F 1019.5 in Calm   3.2 mph 57 % 0.0 in
19:22 21.7 °F 12.8 °F 1019.5 in Calm   3.2 mph 57 % 0.0 in
19:32 21.4 °F 13.6 °F 1019.5 in ENE 1.6 mph 3.2 mph 61 % 0.0 in
19:37 21.2 °F 13.4 °F 1019.5 in Calm   3.2 mph 61 % 0.0 in
19:42 21.1 °F 13.3 °F 1019.5 in NE 3.2 mph 3.2 mph 61 % 0 in
19:52 21.0 °F 13.2 °F 1019.5 in NE 1.6 mph 3.2 mph 61 % 0.0 in
19:57 20.9 °F 13.1 °F 1019.5 in NE 1.6 mph 3.2 mph 61 % 0.0 in
20:02 20.8 °F 13.3 °F 1019.5 in Calm   3.2 mph 62 % 0.0 in
20:12 20.3 °F 13.5 °F 1019.5 in Calm   3.2 mph 65 % 0.0 in
20:17 19.9 °F 13.4 °F 1019.5 in Calm   1.6 mph 66 % 0.0 in
20:22 19.7 °F 13.4 °F 1019.5 in Calm   1.6 mph 67 % 0.0 in
20:32 19.6 °F 13.5 °F 1019.5 in Calm     68 % 0.0 in
20:37 19.5 °F 13.4 °F 1019.5 in Calm     68 % 0.0 in
20:42 19.3 °F 13.2 °F 1019.5 in Calm     68 % 0.0 in
20:52 19.3 °F 13.7 °F 1019.9 in Calm     70 % 0.0 in
20:57 19.3 °F 13.7 °F 1019.9 in NNW 1.6 mph 1.6 mph 70 % 0.0 in
21:02 19.2 °F 13.6 °F 1019.9 in Calm   1.6 mph 70 % 0.0 in
21:12 19.1 °F 13.7 °F 1019.9 in Calm   1.6 mph 71 % 0.0 in
21:17 19.0 °F 14.0 °F 1019.9 in Calm   1.6 mph 73 % 0.0 in
21:22 18.8 °F 13.9 °F 1019.5 in Calm   1.6 mph 73 % 0.0 in
21:32 18.6 °F 13.7 °F 1019.5 in Calm     73 % 0.0 in
21:37 18.4 °F 13.5 °F 1019.9 in Calm     73 % 0.0 in
21:42 18.3 °F 13.6 °F 1019.5 in Calm     74 % 0.0 in
21:52 18.1 °F 13.6 °F 1019.5 in Calm     75 % 0.0 in
21:57 17.8 °F 13.3 °F 1019.5 in Calm   1.6 mph 75 % 0.0 in
22:02 17.8 °F 13.3 °F 1019.5 in Calm   1.6 mph 75 % 0.0 in
22:07 17.8 °F 13.1 °F 1019.5 in Calm   1.6 mph 74 % 0.0 in
22:12 17.8 °F 13.1 °F 1019.9 in Calm   1.6 mph 74 % 0.0 in
22:17 17.6 °F 13.3 °F 1019.9 in Calm   1.6 mph 76 % 0.0 in
22:22 17.7 °F 13.2 °F 1019.9 in Calm   1.6 mph 75 % 0.0 in
22:27 17.8 °F 13.3 °F 1019.9 in Calm   1.6 mph 75 % 0.0 in
22:32 17.8 °F 13.3 °F 1019.9 in Calm   1.6 mph 75 % 0.0 in
22:37 17.7 °F 13.2 °F 1019.9 in Calm     75 % 0.0 in
22:42 17.6 °F 13.1 °F 1019.9 in Calm     75 % 0.0 in
22:47 17.6 °F 13.1 °F 1019.5 in Calm     75 % 0.0 in
22:52 17.6 °F 13.1 °F 1019.5 in Calm     75 % 0.0 in
23:02 17.5 °F 13.0 °F 1019.5 in Calm     75 % 0.0 in
23:12 17.2 °F 13.1 °F 1019.9 in WNW 1.6 mph   77 % 0.0 in
23:17 16.8 °F 12.9 °F 1019.5 in Calm   1.6 mph 78 % 0.0 in
23:22 16.8 °F 12.7 °F 1019.5 in Calm   1.6 mph 77 % 0.0 in
23:32 17.3 °F 12.6 °F 1019.5 in Calm   1.6 mph 74 % 0.0 in
23:37 17.4 °F 12.7 °F 1019.5 in Calm   1.6 mph 74 % 0.0 in
23:47 16.5 °F 12.7 °F 1019.5 in Calm   1.6 mph 78 % 0.0 in
23:52 16.2 °F 12.6 °F 1019.5 in Calm   1.6 mph 79 % 0.0 in
23:57 16.2 °F 12.4 °F 1019.5 in Calm   1.6 mph 78 % 0.0 in
Meteo18
Compliments of Weather Underground - 4 mb

Script developed by  Jim McMurry - jmcmurry@mwt.net Adapted for the template by  Wim van der Kuil - Leuven-Template.eu

You find our weather info also at:

European Weather Network

Weather Underground

Equipment we use:

Weather-station
Davis Vue

Weather-program
Meteobridge

Weather-server
Raspberry PI 2 B+

Provider
1 and 1

Davis Vue

Meteobridge

Raspberry PI 2 B+

1 and 1